createdAt,value
2023-05-04T00:02:30.729Z,76.14
2023-05-04T00:05:02.708Z,76.81
2023-05-04T00:07:34.799Z,77.00
2023-05-04T00:10:07.084Z,76.84
2023-05-04T00:12:39.383Z,76.56
2023-05-04T00:15:10.880Z,76.52
2023-05-04T00:17:42.464Z,76.48
2023-05-04T00:20:13.950Z,76.87
2023-05-04T00:22:45.397Z,76.90
2023-05-04T00:25:16.973Z,77.31
2023-05-04T00:27:48.448Z,77.55
2023-05-04T00:30:20.425Z,77.31
2023-05-04T00:32:52.010Z,77.47
2023-05-04T00:35:23.557Z,77.22
2023-05-04T00:37:55.050Z,77.77
2023-05-04T00:40:26.576Z,77.52
2023-05-04T00:42:58.567Z,77.77
2023-05-04T00:45:30.476Z,77.80
2023-05-04T00:48:02.542Z,77.35
2023-05-04T00:50:34.869Z,77.06
2023-05-04T00:53:10.633Z,76.73
2023-05-04T00:55:42.153Z,76.93
2023-05-04T00:58:13.677Z,76.33
2023-05-04T01:00:45.283Z,76.86
2023-05-04T01:03:17.267Z,76.76
2023-05-04T01:06:27.817Z,76.95
2023-05-04T01:09:11.341Z,76.64
2023-05-04T01:11:53.733Z,76.75
2023-05-04T01:14:25.572Z,76.00
2023-05-04T01:16:59.416Z,76.01
2023-05-04T01:19:31.132Z,75.68
2023-05-04T01:22:02.666Z,76.07
2023-05-04T01:24:34.528Z,75.19
2023-05-04T01:27:11.350Z,75.82
2023-05-04T01:29:48.638Z,76.03
2023-05-04T01:32:21.626Z,76.26
2023-05-04T01:34:53.258Z,75.77
2023-05-04T01:37:25.512Z,75.95
2023-05-04T01:39:56.966Z,76.53
2023-05-04T01:42:28.392Z,76.35
2023-05-04T01:45:00.080Z,76.65
2023-05-04T01:47:31.718Z,76.24
2023-05-04T01:50:05.689Z,76.74
2023-05-04T01:52:37.537Z,76.96
2023-05-04T01:55:09.355Z,77.18
2023-05-04T01:57:40.890Z,76.69
2023-05-04T02:00:12.929Z,76.22
2023-05-04T02:02:44.479Z,76.43
2023-05-04T02:05:16.382Z,76.24
2023-05-04T02:07:47.955Z,76.35
2023-05-04T02:10:19.459Z,75.88
2023-05-04T02:12:52.145Z,75.94
2023-05-04T02:15:23.747Z,75.39
2023-05-04T02:17:55.377Z,75.55
2023-05-04T02:20:26.982Z,76.00
2023-05-04T02:23:01.311Z,76.08
2023-05-04T02:25:32.858Z,75.64
2023-05-04T02:28:04.446Z,75.56
2023-05-04T02:30:36.029Z,76.23
2023-05-04T02:33:07.816Z,76.04
2023-05-04T02:35:39.391Z,75.88
2023-05-04T02:38:10.892Z,75.83
2023-05-04T02:40:42.425Z,76.29
2023-05-04T02:43:13.960Z,76.65
2023-05-04T02:45:45.563Z,76.49
2023-05-04T02:48:17.029Z,77.04
2023-05-04T02:50:48.535Z,77.13
2023-05-04T02:53:20.049Z,77.27
2023-05-04T02:55:51.578Z,78.38
2023-05-04T02:58:23.086Z,78.86
2023-05-04T03:00:57.878Z,78.83
2023-05-04T03:03:29.393Z,78.62
2023-05-04T03:06:01.130Z,78.55
2023-05-04T03:08:32.591Z,78.85
2023-05-04T03:11:04.055Z,78.70
2023-05-04T03:13:35.705Z,78.74
2023-05-04T03:16:07.310Z,79.58
2023-05-04T03:21:28.081Z,79.67
2023-05-04T03:23:59.559Z,79.83
2023-05-04T03:26:31.154Z,79.77
2023-05-04T03:29:02.736Z,79.53
2023-05-04T03:31:34.296Z,79.61
2023-05-04T03:34:05.833Z,80.07
2023-05-04T03:36:37.416Z,80.01
2023-05-04T03:39:10.073Z,80.25
2023-05-04T03:41:41.576Z,79.50
2023-05-04T03:44:13.011Z,79.70
2023-05-04T03:46:44.560Z,79.51
2023-05-04T03:49:16.072Z,79.48
2023-05-04T03:51:48.706Z,79.00
2023-05-04T03:54:20.186Z,79.19
2023-05-04T03:56:52.394Z,79.25
2023-05-04T03:59:23.888Z,79.51
2023-05-04T04:01:55.438Z,79.69
2023-05-04T04:04:27.359Z,79.74
2023-05-04T04:06:58.913Z,79.57
2023-05-04T04:09:30.470Z,79.80
2023-05-04T04:12:02.301Z,79.80
2023-05-04T04:14:33.767Z,79.82
2023-05-04T04:17:05.432Z,80.10
2023-05-04T04:19:36.967Z,79.63
2023-05-04T04:22:08.500Z,79.55
2023-05-04T04:24:40.006Z,79.67
2023-05-04T04:27:11.480Z,79.33
2023-05-04T04:29:43.045Z,79.67
2023-05-04T04:32:14.602Z,79.68
2023-05-04T04:34:46.236Z,80.17
2023-05-04T04:37:18.020Z,80.65
2023-05-04T04:39:49.515Z,81.65
2023-05-04T04:42:21.217Z,81.80
2023-05-04T04:44:52.724Z,81.48
2023-05-04T04:47:24.354Z,82.36
2023-05-04T04:49:55.906Z,81.91
2023-05-04T04:52:27.445Z,81.91
2023-05-04T04:54:58.977Z,82.02
2023-05-04T04:57:31.835Z,82.05
2023-05-04T05:00:08.531Z,81.64
2023-05-04T05:02:40.083Z,81.63
2023-05-04T05:05:12.920Z,81.66
2023-05-04T05:07:44.634Z,81.47
2023-05-04T05:10:16.607Z,81.50
2023-05-04T05:12:49.601Z,81.76
2023-05-04T05:15:21.617Z,82.15
2023-05-04T05:17:53.183Z,81.73
2023-05-04T05:20:36.255Z,81.77
2023-05-04T05:23:07.814Z,81.94
2023-05-04T05:25:39.423Z,82.28
2023-05-04T05:28:11.159Z,81.72
2023-05-04T05:30:42.893Z,81.87
2023-05-04T05:33:14.570Z,81.54
2023-05-04T05:35:46.146Z,81.77
2023-05-04T05:38:18.372Z,81.77
2023-05-04T05:40:49.888Z,81.58
2023-05-04T05:43:21.642Z,81.97
2023-05-04T05:45:53.640Z,81.85
2023-05-04T05:48:25.130Z,81.54
2023-05-04T05:50:56.637Z,80.97
2023-05-04T05:53:28.133Z,81.09
2023-05-04T05:55:59.669Z,79.71
2023-05-04T05:58:31.285Z,80.12
2023-05-04T06:01:03.566Z,80.17
2023-05-04T06:03:35.021Z,79.49
2023-05-04T06:06:06.695Z,79.46
2023-05-04T06:08:38.207Z,79.70
2023-05-04T06:11:09.710Z,79.27
2023-05-04T06:13:41.234Z,79.76
2023-05-04T06:16:13.037Z,79.29
2023-05-04T06:18:44.546Z,79.30
2023-05-04T06:21:16.185Z,78.71
2023-05-04T06:23:47.822Z,78.06
2023-05-04T06:26:20.170Z,77.82
2023-05-04T06:28:51.935Z,77.42
2023-05-04T06:31:24.216Z,77.05
2023-05-04T06:33:55.815Z,77.30
2023-05-04T06:36:27.353Z,76.79
2023-05-04T06:38:58.873Z,76.93
2023-05-04T06:41:30.605Z,75.59
2023-05-04T06:44:02.301Z,75.66
2023-05-04T06:46:37.301Z,75.67
2023-05-04T06:49:08.821Z,74.84
2023-05-04T06:51:40.810Z,74.26
2023-05-04T06:54:13.090Z,74.69
2023-05-04T06:56:44.451Z,73.85
2023-05-04T06:59:16.926Z,73.79
2023-05-04T07:01:48.650Z,74.11
2023-05-04T07:04:23.219Z,73.84
2023-05-04T07:06:55.017Z,73.02
2023-05-04T07:09:26.818Z,73.27
2023-05-04T07:11:58.317Z,73.49
2023-05-04T07:14:29.890Z,72.90
2023-05-04T07:17:01.378Z,72.49
2023-05-04T07:19:32.845Z,71.28
2023-05-04T07:22:04.297Z,72.11
2023-05-04T07:24:35.767Z,71.25
2023-05-04T07:27:07.778Z,70.41
2023-05-04T07:29:39.383Z,70.74
2023-05-04T07:32:11.137Z,70.04
2023-05-04T07:34:46.319Z,69.64
2023-05-04T07:37:18.056Z,68.84
2023-05-04T07:39:49.568Z,67.47
2023-05-04T07:42:21.047Z,67.99
2023-05-04T07:44:52.952Z,65.71
2023-05-04T07:47:24.901Z,66.87
2023-05-04T07:49:56.463Z,66.66
2023-05-04T07:52:28.050Z,66.18
2023-05-04T07:54:59.569Z,66.38
2023-05-04T07:57:32.342Z,65.71
2023-05-04T08:00:06.180Z,64.39
2023-05-04T08:02:38.087Z,64.75
2023-05-04T08:05:09.910Z,64.24
2023-05-04T08:07:41.483Z,65.04
2023-05-04T08:10:13.052Z,64.44
2023-05-04T08:12:44.562Z,63.49
2023-05-04T08:15:16.432Z,63.07
2023-05-04T08:17:47.956Z,63.19
2023-05-04T08:20:20.303Z,63.74
2023-05-04T08:22:53.386Z,60.71
2023-05-04T08:25:24.823Z,61.49
2023-05-04T08:27:56.554Z,60.52
2023-05-04T08:30:28.228Z,58.76
2023-05-04T08:33:00.391Z,58.19
2023-05-04T08:35:31.780Z,57.88
2023-05-04T08:38:03.922Z,59.34
2023-05-04T08:40:35.447Z,58.64
2023-05-04T08:43:07.408Z,56.53
2023-05-04T08:45:40.000Z,57.34
2023-05-04T08:48:11.659Z,55.77
2023-05-04T08:50:43.536Z,54.63
2023-05-04T08:53:18.731Z,56.57
2023-05-04T08:55:52.739Z,54.44
2023-05-04T08:58:25.293Z,52.75
2023-05-04T09:01:01.110Z,55.02
2023-05-04T09:03:34.295Z,54.66
2023-05-04T09:06:07.274Z,52.00
2023-05-04T09:08:38.830Z,51.99
2023-05-04T09:11:10.498Z,50.39
2023-05-04T09:13:42.977Z,51.37
2023-05-04T09:16:16.228Z,51.50
2023-05-04T09:18:47.873Z,51.31
2023-05-04T09:21:28.896Z,49.67
2023-05-04T09:24:00.445Z,50.74
2023-05-04T09:26:33.051Z,51.17
2023-05-04T09:29:15.060Z,49.70
2023-05-04T09:31:48.374Z,47.78
2023-05-04T09:34:21.440Z,49.48
2023-05-04T09:37:01.585Z,47.26
2023-05-04T09:39:33.085Z,48.05
2023-05-04T09:42:05.765Z,47.91
2023-05-04T09:44:37.276Z,45.09
2023-05-04T09:47:08.786Z,44.70
2023-05-04T09:49:40.327Z,46.24
2023-05-04T09:52:12.503Z,44.98
2023-05-04T09:54:45.297Z,47.35
2023-05-04T09:57:18.820Z,45.13
2023-05-04T09:59:52.216Z,44.93
2023-05-04T10:02:24.546Z,45.66
2023-05-04T10:04:58.311Z,45.85
2023-05-04T10:07:31.552Z,44.81
2023-05-04T10:10:03.622Z,43.35
2023-05-04T10:12:35.011Z,42.85
2023-05-04T10:15:08.789Z,45.07
2023-05-04T10:18:05.134Z,45.37
2023-05-04T10:20:54.942Z,43.74
2023-05-04T10:23:35.382Z,44.70
2023-05-04T10:26:31.898Z,45.08
2023-05-04T10:29:23.142Z,43.86
2023-05-04T10:31:56.843Z,42.27
2023-05-04T10:34:33.629Z,42.79
2023-05-04T10:37:16.728Z,42.85
2023-05-04T10:39:54.914Z,42.61
2023-05-04T10:42:26.680Z,40.23
2023-05-04T10:44:58.303Z,41.21
2023-05-04T10:47:34.532Z,39.90
2023-05-04T10:50:12.256Z,41.75
2023-05-04T10:52:50.936Z,39.64
2023-05-04T10:55:22.561Z,40.67
2023-05-04T10:57:55.922Z,40.60
2023-05-04T11:00:45.774Z,41.37
2023-05-04T11:03:19.029Z,37.98
2023-05-04T11:05:52.664Z,37.82
2023-05-04T11:08:27.472Z,38.93
2023-05-04T11:11:06.785Z,38.78
2023-05-04T11:13:46.101Z,38.76
2023-05-04T11:16:24.867Z,39.33
2023-05-04T11:19:07.502Z,38.31
2023-05-04T11:21:40.759Z,37.71
2023-05-04T11:24:12.461Z,38.96
2023-05-04T11:26:48.873Z,39.19
2023-05-04T11:29:20.828Z,37.27
2023-05-04T11:31:55.797Z,38.71
2023-05-04T11:34:27.825Z,39.26
2023-05-04T11:36:59.378Z,40.75
2023-05-04T11:39:33.443Z,40.71
2023-05-04T11:42:09.053Z,36.63
2023-05-04T11:44:40.816Z,36.83
2023-05-04T11:47:13.579Z,35.24
2023-05-04T11:49:47.493Z,37.74
2023-05-04T11:52:25.720Z,37.79
2023-05-04T11:54:57.438Z,38.49
2023-05-04T11:57:31.571Z,37.06
2023-05-04T12:00:07.908Z,39.10
2023-05-04T12:02:39.562Z,38.37
2023-05-04T12:05:13.522Z,37.86
2023-05-04T12:07:45.156Z,37.22
2023-05-04T12:10:28.275Z,36.28
2023-05-04T12:13:02.100Z,35.86
2023-05-04T12:15:36.556Z,37.73
2023-05-04T12:18:08.121Z,38.13
2023-05-04T12:20:39.624Z,37.07
2023-05-04T12:23:11.273Z,37.24
2023-05-04T12:25:54.679Z,36.83
2023-05-04T12:28:29.888Z,37.14
2023-05-04T12:31:01.418Z,36.40
2023-05-04T12:33:33.705Z,35.04
2023-05-04T12:36:06.203Z,35.71
2023-05-04T12:38:40.737Z,35.62
2023-05-04T12:41:12.533Z,35.45
2023-05-04T12:43:44.091Z,34.67
2023-05-04T12:46:17.479Z,34.28
2023-05-04T12:48:49.046Z,33.12
2023-05-04T12:51:20.832Z,34.76
2023-05-04T12:53:52.401Z,33.28
2023-05-04T12:56:25.101Z,32.94
2023-05-04T12:58:56.551Z,34.00
2023-05-04T13:01:28.236Z,32.62
2023-05-04T13:03:59.796Z,32.28
2023-05-04T13:06:31.799Z,32.72
2023-05-04T13:09:06.048Z,33.06
2023-05-04T13:11:38.055Z,33.43
2023-05-04T13:14:09.711Z,32.75
2023-05-04T13:16:41.817Z,31.73
2023-05-04T13:19:13.841Z,32.99
2023-05-04T13:21:45.821Z,31.29
2023-05-04T13:24:17.709Z,30.78
2023-05-04T13:26:52.167Z,31.32
2023-05-04T13:29:27.358Z,29.54
2023-05-04T13:31:59.820Z,30.20
2023-05-04T13:34:31.796Z,30.59
2023-05-04T13:37:03.601Z,29.77
2023-05-04T13:39:41.864Z,30.92
2023-05-04T13:42:14.040Z,29.09
2023-05-04T13:44:45.944Z,30.33
2023-05-04T13:47:17.862Z,29.56
2023-05-04T13:49:50.554Z,28.83
2023-05-04T13:52:22.501Z,28.77
2023-05-04T13:54:54.536Z,27.51
2023-05-04T13:57:29.973Z,27.66
2023-05-04T14:00:07.572Z,27.98
2023-05-04T14:02:41.294Z,30.41
2023-05-04T14:05:13.784Z,30.34
2023-05-04T14:07:45.280Z,29.11
2023-05-04T14:10:17.645Z,30.24
2023-05-04T14:12:49.178Z,30.88
2023-05-04T14:15:23.216Z,30.66
2023-05-04T14:17:54.773Z,30.05
2023-05-04T14:20:26.529Z,30.77
2023-05-04T14:22:57.881Z,31.35
2023-05-04T14:25:29.459Z,30.15
2023-05-04T14:28:01.784Z,30.46
2023-05-04T14:30:33.894Z,30.00
2023-05-04T14:33:05.470Z,28.61
2023-05-04T14:35:43.168Z,29.59
2023-05-04T14:38:15.056Z,30.46
2023-05-04T14:40:48.976Z,29.55
2023-05-04T14:43:21.595Z,28.96
2023-05-04T14:45:53.315Z,27.38
2023-05-04T14:48:26.364Z,27.08
2023-05-04T14:50:57.880Z,27.44
2023-05-04T14:53:33.163Z,25.61
2023-05-04T14:56:04.816Z,26.10
2023-05-04T14:58:36.342Z,23.06
2023-05-04T15:01:08.287Z,22.83
2023-05-04T15:03:39.927Z,22.38
2023-05-04T15:06:11.570Z,23.00
2023-05-04T15:08:43.290Z,22.04
2023-05-04T15:11:14.758Z,22.45
2023-05-04T15:13:46.229Z,21.79
2023-05-04T15:16:17.901Z,20.98
2023-05-04T15:18:49.397Z,21.24
2023-05-04T15:21:21.361Z,22.33
2023-05-04T15:23:52.926Z,21.15
2023-05-04T15:26:24.430Z,20.89
2023-05-04T15:28:55.994Z,21.87
2023-05-04T15:31:27.549Z,20.42
2023-05-04T15:34:00.567Z,21.60
2023-05-04T15:36:32.160Z,20.82
2023-05-04T15:39:05.446Z,19.11
2023-05-04T15:41:37.073Z,19.72
2023-05-04T15:44:08.598Z,19.00
2023-05-04T15:46:40.180Z,17.89
2023-05-04T15:49:11.756Z,17.20
2023-05-04T15:51:43.251Z,15.90
2023-05-04T15:54:14.810Z,16.18
2023-05-04T15:56:46.356Z,16.10
2023-05-04T15:59:17.935Z,14.65
2023-05-04T16:01:49.559Z,13.46
2023-05-04T16:04:21.048Z,12.61
2023-05-04T16:06:52.530Z,13.41
2023-05-04T16:09:25.325Z,15.14
2023-05-04T16:11:57.013Z,16.46
2023-05-04T16:14:28.468Z,15.44
2023-05-04T16:17:01.348Z,14.96
2023-05-04T16:19:33.022Z,17.62
2023-05-04T16:22:04.511Z,19.78
2023-05-04T16:24:36.159Z,22.07
2023-05-04T16:27:07.828Z,23.93
2023-05-04T16:29:39.321Z,25.26
2023-05-04T16:32:10.774Z,26.37
2023-05-04T16:34:42.243Z,28.45
2023-05-04T16:37:13.788Z,28.41
2023-05-04T16:39:45.109Z,29.68
2023-05-04T16:42:16.591Z,30.31
2023-05-04T16:44:48.027Z,30.67
2023-05-04T16:47:20.314Z,30.48
2023-05-04T16:49:51.825Z,30.92
2023-05-04T16:52:23.416Z,31.01
2023-05-04T16:54:55.114Z,31.37
2023-05-04T16:57:26.591Z,32.48
2023-05-04T16:59:58.134Z,32.46
2023-05-04T17:02:29.716Z,32.80
2023-05-04T17:05:01.364Z,32.42
2023-05-04T17:07:34.098Z,33.09
2023-05-04T17:10:07.991Z,32.98
2023-05-04T17:12:39.879Z,33.30
2023-05-04T17:15:11.822Z,32.84
2023-05-04T17:17:43.371Z,33.37
2023-05-04T17:20:15.252Z,33.64
2023-05-04T17:22:46.803Z,34.46
2023-05-04T17:25:18.515Z,35.14
2023-05-04T17:27:50.033Z,35.68
2023-05-04T17:30:21.728Z,35.44
2023-05-04T17:32:54.366Z,35.68
2023-05-04T17:35:26.737Z,36.85
2023-05-04T17:37:58.998Z,37.12
2023-05-04T17:40:30.746Z,36.09
2023-05-04T17:43:02.332Z,37.76
2023-05-04T17:45:34.088Z,36.95
2023-05-04T17:48:06.281Z,35.99
2023-05-04T17:50:38.046Z,36.72
2023-05-04T17:53:09.518Z,37.53
2023-05-04T17:55:40.957Z,37.19
2023-05-04T17:58:12.450Z,39.06
2023-05-04T18:00:43.925Z,39.01
2023-05-04T18:03:15.613Z,40.17
2023-05-04T18:05:47.211Z,39.34
2023-05-04T18:08:18.993Z,40.36
2023-05-04T18:10:50.682Z,40.46
2023-05-04T18:13:22.340Z,41.32
2023-05-04T18:15:54.002Z,42.49
2023-05-04T18:18:25.519Z,41.77
2023-05-04T18:21:00.750Z,42.53
2023-05-04T18:23:32.314Z,42.65
2023-05-04T18:26:04.010Z,43.24
2023-05-04T18:28:35.713Z,44.22
2023-05-04T18:31:07.299Z,44.23
2023-05-04T18:33:39.041Z,44.30
2023-05-04T18:36:11.119Z,45.67
2023-05-04T18:38:42.694Z,45.33
2023-05-04T18:41:14.296Z,45.43
2023-05-04T18:43:45.828Z,45.30
2023-05-04T18:46:17.409Z,45.31
2023-05-04T18:48:49.294Z,45.35
2023-05-04T18:51:20.804Z,45.82
2023-05-04T18:53:52.395Z,46.16
2023-05-04T18:56:24.066Z,45.85
2023-05-04T18:58:55.586Z,47.21
2023-05-04T19:01:27.845Z,46.07
2023-05-04T19:03:59.502Z,47.01
2023-05-04T19:06:32.518Z,48.96
2023-05-04T19:09:04.272Z,47.94
2023-05-04T19:11:35.770Z,47.93
2023-05-04T19:14:07.351Z,47.82
2023-05-04T19:16:38.978Z,47.03
2023-05-04T19:19:10.552Z,47.54
2023-05-04T19:21:42.960Z,47.46
2023-05-04T19:24:14.534Z,46.96
2023-05-04T19:26:46.118Z,47.03
2023-05-04T19:29:17.707Z,47.21
2023-05-04T19:31:49.283Z,46.98
2023-05-04T19:34:20.826Z,46.85
2023-05-04T19:36:52.477Z,47.57
2023-05-04T19:39:24.000Z,47.82
2023-05-04T19:41:55.504Z,47.17
2023-05-04T19:44:27.008Z,47.34
2023-05-04T19:46:58.734Z,47.09
2023-05-04T19:49:30.842Z,46.18
2023-05-04T19:52:02.384Z,46.57
2023-05-04T19:54:34.102Z,46.33
2023-05-04T19:57:05.571Z,46.55
2023-05-04T19:59:37.073Z,47.93
2023-05-04T20:02:08.752Z,47.46
2023-05-04T20:04:40.396Z,48.15
2023-05-04T20:07:11.879Z,48.02
2023-05-04T20:09:43.402Z,47.75
2023-05-04T20:12:14.881Z,47.99
2023-05-04T20:14:46.615Z,47.65
2023-05-04T20:17:18.168Z,47.19
2023-05-04T20:19:49.907Z,47.83
2023-05-04T20:22:21.415Z,47.01
2023-05-04T20:24:53.531Z,47.50
2023-05-04T20:27:25.278Z,47.25
2023-05-04T20:29:56.775Z,47.48
2023-05-04T20:32:28.901Z,47.47
2023-05-04T20:35:00.335Z,47.66
2023-05-04T20:37:31.939Z,47.53
2023-05-04T20:40:03.786Z,47.99
2023-05-04T20:42:35.705Z,48.14
2023-05-04T20:45:07.818Z,49.00
2023-05-04T20:47:39.375Z,48.89
2023-05-04T20:50:11.888Z,49.62
2023-05-04T20:52:44.375Z,49.68
2023-05-04T20:55:16.480Z,49.32
2023-05-04T20:57:48.087Z,49.55
2023-05-04T21:00:20.019Z,49.02
2023-05-04T21:02:51.659Z,49.91
2023-05-04T21:05:23.352Z,50.29
2023-05-04T21:07:54.911Z,50.67
2023-05-04T21:10:26.519Z,50.97
2023-05-04T21:12:58.341Z,50.91
2023-05-04T21:15:29.919Z,51.36
2023-05-04T21:18:01.466Z,51.10
2023-05-04T21:20:33.130Z,51.55
2023-05-04T21:23:04.688Z,52.31
2023-05-04T21:25:36.236Z,52.16
2023-05-04T21:28:07.822Z,51.79
2023-05-04T21:30:42.668Z,52.62
2023-05-04T21:33:14.222Z,52.80
2023-05-04T21:35:45.755Z,52.65
2023-05-04T21:38:18.445Z,52.71
2023-05-04T21:40:51.804Z,53.70
2023-05-04T21:43:23.413Z,54.00
2023-05-04T21:45:54.912Z,53.85
2023-05-04T21:48:26.956Z,53.76
2023-05-04T21:50:58.456Z,54.14
2023-05-04T21:53:33.633Z,54.62
2023-05-04T21:56:09.356Z,55.32
2023-05-04T21:58:41.100Z,56.05
2023-05-04T22:01:17.068Z,56.63
2023-05-04T22:03:48.746Z,56.22
2023-05-04T22:06:21.982Z,55.81
2023-05-04T22:08:53.522Z,55.55
2023-05-04T22:11:25.330Z,55.23
2023-05-04T22:13:56.875Z,55.44
2023-05-04T22:16:28.471Z,56.96
2023-05-04T22:18:59.866Z,56.71
2023-05-04T22:21:32.479Z,56.00
2023-05-04T22:24:04.314Z,56.58
2023-05-04T22:26:36.018Z,56.61
2023-05-04T22:29:07.532Z,56.99
2023-05-04T22:31:39.004Z,56.62
2023-05-04T22:34:10.562Z,56.81
2023-05-04T22:36:42.029Z,57.97
2023-05-04T22:39:13.542Z,58.53
2023-05-04T22:41:45.042Z,58.59
2023-05-04T22:44:16.529Z,58.57
2023-05-04T22:46:49.247Z,59.39
2023-05-04T22:49:20.800Z,59.12
2023-05-04T22:51:52.287Z,59.91
2023-05-04T22:54:23.796Z,59.66
2023-05-04T22:56:55.861Z,59.61
2023-05-04T22:59:27.356Z,60.14
2023-05-04T23:01:58.945Z,59.91
2023-05-04T23:04:31.191Z,60.93
2023-05-04T23:07:02.539Z,60.49
2023-05-04T23:09:41.501Z,60.54
2023-05-04T23:12:14.162Z,60.36
2023-05-04T23:14:50.132Z,60.86
2023-05-04T23:17:22.105Z,60.86
2023-05-04T23:19:53.657Z,60.75
2023-05-04T23:22:25.669Z,60.67
2023-05-04T23:24:57.276Z,62.14
2023-05-04T23:27:28.823Z,62.29
2023-05-04T23:30:00.351Z,61.72
2023-05-04T23:32:31.930Z,62.42
2023-05-04T23:35:03.598Z,62.19
2023-05-04T23:37:35.108Z,62.18
2023-05-04T23:40:08.152Z,62.28
2023-05-04T23:42:39.847Z,63.31
2023-05-04T23:45:11.617Z,63.05
2023-05-04T23:47:43.172Z,63.12
2023-05-04T23:50:14.781Z,63.03
2023-05-04T23:52:46.347Z,63.07
2023-05-04T23:55:17.882Z,62.91
2023-05-04T23:57:49.434Z,63.47
